createdAt,value
2023-06-18T00:00:22.463Z,5.10
2023-06-18T00:03:16.912Z,5.60
2023-06-18T00:05:51.363Z,5.50
2023-06-18T00:08:25.207Z,5.80
2023-06-18T00:10:56.030Z,5.30
2023-06-18T00:13:33.343Z,5.10
2023-06-18T00:16:11.076Z,5.20
2023-06-18T00:18:44.984Z,5.20
2023-06-18T00:21:14.022Z,5.90
2023-06-18T00:23:42.795Z,5.30
2023-06-18T00:26:13.193Z,5.50
2023-06-18T00:28:43.645Z,5.80
2023-06-18T00:31:13.254Z,5.00
2023-06-18T00:33:42.453Z,5.70
2023-06-18T00:36:11.649Z,6.10
2023-06-18T00:38:45.247Z,5.70
2023-06-18T00:41:14.153Z,6.00
2023-06-18T00:43:45.284Z,5.80
2023-06-18T00:46:14.078Z,6.20
2023-06-18T00:48:43.369Z,5.60
2023-06-18T00:51:15.080Z,5.60
2023-06-18T00:54:00.199Z,5.70
2023-06-18T00:56:30.936Z,6.60
2023-06-18T00:59:00.861Z,6.10
2023-06-18T01:01:31.580Z,6.50
2023-06-18T01:04:02.690Z,6.50
2023-06-18T01:06:35.878Z,6.10
2023-06-18T01:09:05.734Z,6.00
2023-06-18T01:11:39.529Z,6.40
2023-06-18T01:14:10.981Z,6.30
2023-06-18T01:16:46.982Z,6.40
2023-06-18T01:19:25.041Z,6.00
2023-06-18T01:22:17.382Z,5.70
2023-06-18T01:25:18.296Z,5.70
2023-06-18T01:28:20.286Z,5.10
2023-06-18T01:31:18.672Z,5.80
2023-06-18T01:34:16.920Z,5.20
2023-06-18T01:37:37.007Z,5.40
2023-06-18T01:40:35.596Z,5.90
2023-06-18T01:43:51.434Z,5.10
2023-06-18T01:46:48.071Z,4.70
2023-06-18T01:49:31.600Z,5.50
2023-06-18T01:52:04.376Z,6.20
2023-06-18T01:54:33.196Z,5.80
2023-06-18T01:57:02.274Z,5.10
2023-06-18T01:59:31.257Z,4.90
2023-06-18T02:02:00.093Z,5.50
2023-06-18T02:04:28.948Z,5.30
2023-06-18T02:06:57.722Z,5.60
2023-06-18T02:09:26.636Z,5.30
2023-06-18T02:11:55.287Z,5.30
2023-06-18T02:14:24.187Z,5.30
2023-06-18T02:16:53.181Z,5.40
2023-06-18T02:19:26.009Z,4.80
2023-06-18T02:21:59.279Z,5.00
2023-06-18T02:24:28.030Z,5.00
2023-06-18T02:26:56.846Z,4.70
2023-06-18T02:29:25.747Z,5.10
2023-06-18T02:31:54.547Z,4.20
2023-06-18T02:34:29.051Z,5.60
2023-06-18T02:36:57.821Z,5.20
2023-06-18T02:39:26.526Z,5.10
2023-06-18T02:41:55.292Z,5.50
2023-06-18T02:44:25.871Z,5.60
2023-06-18T02:46:54.762Z,5.60
2023-06-18T02:49:23.911Z,5.00
2023-06-18T02:51:55.667Z,6.20
2023-06-18T02:54:34.360Z,6.20
2023-06-18T02:57:08.130Z,5.30
2023-06-18T02:59:44.221Z,5.60
2023-06-18T03:02:15.317Z,5.20
2023-06-18T03:04:50.923Z,5.00
2023-06-18T03:07:25.393Z,5.60
2023-06-18T03:09:55.699Z,5.90
2023-06-18T03:12:28.548Z,6.10
2023-06-18T03:15:03.168Z,5.50
2023-06-18T03:17:37.056Z,5.70
2023-06-18T03:20:09.101Z,6.00
2023-06-18T03:22:41.340Z,5.80
2023-06-18T03:25:13.522Z,5.30
2023-06-18T03:27:45.119Z,6.20
2023-06-18T03:30:21.516Z,5.70
2023-06-18T03:32:58.057Z,5.30
2023-06-18T03:35:30.828Z,5.60
2023-06-18T03:38:07.619Z,5.30
2023-06-18T03:40:39.519Z,5.40
2023-06-18T03:43:09.510Z,4.80
2023-06-18T03:45:38.142Z,4.60
2023-06-18T03:48:07.142Z,4.90
2023-06-18T03:50:42.683Z,5.50
2023-06-18T03:53:11.556Z,4.70
2023-06-18T03:55:43.237Z,5.00
2023-06-18T03:58:15.036Z,5.50
2023-06-18T04:00:45.097Z,5.50
2023-06-18T04:03:14.517Z,5.50
2023-06-18T04:05:43.185Z,4.90
2023-06-18T04:08:12.082Z,5.80
2023-06-18T04:10:43.902Z,5.30
2023-06-18T04:13:20.238Z,5.30
2023-06-18T04:15:53.521Z,5.20
2023-06-18T04:18:28.177Z,5.40
2023-06-18T04:21:03.916Z,5.40
2023-06-18T04:23:38.378Z,5.10
2023-06-18T04:26:15.369Z,5.40
2023-06-18T04:28:45.281Z,5.70
2023-06-18T04:31:14.478Z,5.40
2023-06-18T04:33:43.489Z,5.50
2023-06-18T04:36:12.475Z,6.20
2023-06-18T04:38:41.965Z,5.60
2023-06-18T04:41:10.860Z,6.40
2023-06-18T04:43:39.836Z,5.80
2023-06-18T04:46:10.266Z,6.10
2023-06-18T04:48:40.018Z,6.20
2023-06-18T04:51:10.420Z,6.80
2023-06-18T04:53:40.427Z,6.30
2023-06-18T04:56:10.545Z,11.50
2023-06-18T04:58:47.034Z,7.40
2023-06-18T05:01:17.219Z,7.10
2023-06-18T05:03:46.026Z,8.10
2023-06-18T05:06:14.803Z,9.80
2023-06-18T05:08:43.951Z,12.60
2023-06-18T05:11:14.429Z,11.10
2023-06-18T05:13:43.752Z,11.60
2023-06-18T05:16:12.656Z,12.10
2023-06-18T05:18:43.366Z,11.70
2023-06-18T05:21:17.377Z,11.60
2023-06-18T05:23:47.010Z,11.20
2023-06-18T05:26:16.299Z,10.70
2023-06-18T05:28:45.289Z,9.90
2023-06-18T05:31:14.992Z,11.00
2023-06-18T05:33:44.081Z,9.60
2023-06-18T05:36:13.067Z,10.10
2023-06-18T05:38:42.395Z,10.30
2023-06-18T05:41:11.994Z,10.20
2023-06-18T05:43:41.000Z,10.60
2023-06-18T05:46:10.641Z,9.40
2023-06-18T05:48:44.391Z,9.60
2023-06-18T05:51:20.864Z,10.00
2023-06-18T05:53:49.640Z,10.60
2023-06-18T05:56:19.252Z,9.40
2023-06-18T05:58:48.151Z,9.40
2023-06-18T06:01:18.077Z,9.70
2023-06-18T06:03:46.897Z,9.20
2023-06-18T06:06:19.919Z,10.10
2023-06-18T06:08:50.263Z,9.80
2023-06-18T06:11:21.086Z,9.80
2023-06-18T06:13:50.079Z,8.90
2023-06-18T06:16:22.192Z,9.70
2023-06-18T06:18:52.543Z,10.60
2023-06-18T06:21:22.193Z,10.20
2023-06-18T06:23:52.348Z,10.50
2023-06-18T06:26:21.694Z,9.80
2023-06-18T06:28:51.748Z,8.10
2023-06-18T06:31:21.531Z,9.40
2023-06-18T06:33:53.203Z,9.10
2023-06-18T06:36:23.312Z,7.80
2023-06-18T06:38:53.657Z,9.70
2023-06-18T06:41:23.987Z,10.20
2023-06-18T06:43:53.282Z,9.20
2023-06-18T06:46:48.080Z,8.90
2023-06-18T06:49:32.500Z,8.60
2023-06-18T06:52:11.867Z,8.10
2023-06-18T06:54:41.037Z,9.80
2023-06-18T06:57:09.720Z,9.40
2023-06-18T06:59:38.721Z,9.80
2023-06-18T07:02:08.069Z,9.60
2023-06-18T07:04:38.962Z,9.80
2023-06-18T07:07:08.161Z,9.50
2023-06-18T07:09:37.666Z,9.20
2023-06-18T07:12:07.192Z,8.70
2023-06-18T07:14:37.024Z,8.30
2023-06-18T07:17:06.735Z,9.40
2023-06-18T07:19:36.109Z,9.30
2023-06-18T07:22:05.598Z,9.40
2023-06-18T07:24:34.805Z,9.00
2023-06-18T07:27:04.398Z,8.20
2023-06-18T07:29:33.592Z,10.00
2023-06-18T07:32:02.994Z,9.30
2023-06-18T07:34:32.521Z,9.50
2023-06-18T07:37:01.723Z,8.40
2023-06-18T07:39:31.014Z,8.50
2023-06-18T07:42:00.217Z,8.20
2023-06-18T07:44:29.811Z,7.30
2023-06-18T07:46:59.626Z,8.20
2023-06-18T07:49:28.599Z,7.70
2023-06-18T07:51:58.638Z,8.00
2023-06-18T07:54:28.256Z,8.00
2023-06-18T07:56:57.148Z,8.40
2023-06-18T07:59:26.840Z,7.90
2023-06-18T08:01:56.313Z,6.60
2023-06-18T08:04:25.488Z,7.30
2023-06-18T08:06:54.924Z,6.50
2023-06-18T08:09:24.471Z,7.20
2023-06-18T08:11:53.540Z,6.20
2023-06-18T08:14:23.801Z,5.70
2023-06-18T08:16:53.584Z,6.70
2023-06-18T08:19:22.811Z,7.00
2023-06-18T08:21:52.894Z,6.90
2023-06-18T08:24:22.125Z,4.90
2023-06-18T08:26:51.112Z,4.70
2023-06-18T08:29:20.309Z,4.60
2023-06-18T08:31:49.600Z,5.00
2023-06-18T08:34:20.026Z,5.20
2023-06-18T08:36:49.002Z,5.20
2023-06-18T08:39:17.830Z,5.30
2023-06-18T08:41:48.006Z,5.00
2023-06-18T08:44:17.207Z,4.40
2023-06-18T08:46:47.561Z,4.70
2023-06-18T08:49:18.657Z,4.50
2023-06-18T08:51:48.452Z,4.30
2023-06-18T08:54:20.348Z,5.40
2023-06-18T08:56:52.707Z,4.90
2023-06-18T08:59:22.863Z,4.60
2023-06-18T09:01:54.112Z,4.10
2023-06-18T09:04:23.608Z,4.50
2023-06-18T09:06:52.580Z,4.50
2023-06-18T09:09:22.917Z,4.90
2023-06-18T09:11:52.324Z,4.30
2023-06-18T09:14:22.849Z,4.30
2023-06-18T09:16:54.536Z,4.20
2023-06-18T09:19:25.060Z,3.70
2023-06-18T09:21:53.929Z,4.10
2023-06-18T09:24:24.959Z,3.80
2023-06-18T09:27:03.070Z,3.40
2023-06-18T09:29:34.576Z,4.00
2023-06-18T09:32:14.500Z,4.20
2023-06-18T09:34:45.000Z,4.30
2023-06-18T09:37:18.303Z,4.60
2023-06-18T09:39:47.293Z,4.40
2023-06-18T09:42:16.494Z,4.00
2023-06-18T09:44:47.141Z,4.70
2023-06-18T09:47:16.416Z,4.40
2023-06-18T09:49:50.039Z,3.80
2023-06-18T09:52:21.678Z,3.40
2023-06-18T09:54:50.875Z,3.80
2023-06-18T09:57:19.904Z,4.30
2023-06-18T09:59:49.056Z,4.00
2023-06-18T10:02:25.756Z,4.20
2023-06-18T10:04:55.158Z,3.60
2023-06-18T10:07:24.458Z,3.50
2023-06-18T10:09:53.436Z,3.40
2023-06-18T10:12:22.314Z,3.30
2023-06-18T10:14:54.946Z,4.00
2023-06-18T10:17:28.444Z,3.40
2023-06-18T10:20:11.100Z,4.00
2023-06-18T10:22:46.876Z,4.00
2023-06-18T10:25:16.794Z,3.70
2023-06-18T10:27:48.004Z,4.40
2023-06-18T10:30:18.055Z,3.50
2023-06-18T10:32:48.327Z,3.50
2023-06-18T10:35:17.261Z,4.20
2023-06-18T10:37:46.764Z,4.00
2023-06-18T10:40:15.815Z,3.80
2023-06-18T10:42:49.591Z,4.20
2023-06-18T10:45:19.424Z,3.90
2023-06-18T10:47:48.365Z,3.90
2023-06-18T10:50:19.815Z,3.90
2023-06-18T10:52:51.653Z,4.20
2023-06-18T10:55:24.358Z,3.90
2023-06-18T10:58:05.819Z,3.90
2023-06-18T11:00:40.259Z,4.30
2023-06-18T11:03:17.781Z,4.00
2023-06-18T11:05:52.165Z,3.70
2023-06-18T11:08:31.008Z,3.60
2023-06-18T11:11:08.327Z,4.10
2023-06-18T11:13:43.541Z,3.90
2023-06-18T11:16:14.710Z,3.60
2023-06-18T11:18:44.899Z,3.80
2023-06-18T11:21:21.579Z,3.70
2023-06-18T11:23:51.025Z,3.60
2023-06-18T11:26:21.546Z,3.30
2023-06-18T11:28:51.517Z,3.20
2023-06-18T11:31:20.206Z,3.40
2023-06-18T11:33:50.219Z,3.40
2023-06-18T11:36:20.862Z,3.00
2023-06-18T11:38:53.245Z,3.40
2023-06-18T11:41:25.753Z,3.30
2023-06-18T11:43:55.517Z,3.70
2023-06-18T11:46:31.588Z,3.70
2023-06-18T11:49:01.127Z,3.30
2023-06-18T11:51:33.230Z,2.90
2023-06-18T11:54:03.353Z,3.70
2023-06-18T11:56:32.471Z,3.20
2023-06-18T11:59:01.760Z,2.90
2023-06-18T12:01:32.173Z,2.70
2023-06-18T12:04:08.941Z,3.10
2023-06-18T12:06:39.501Z,3.20
2023-06-18T12:09:12.780Z,3.00
2023-06-18T12:12:13.032Z,3.40
2023-06-18T12:15:06.200Z,3.40
2023-06-18T12:17:50.224Z,3.10
2023-06-18T12:20:24.681Z,2.60
2023-06-18T12:22:56.403Z,3.20
2023-06-18T12:25:29.565Z,3.00
2023-06-18T12:28:03.587Z,3.00
2023-06-18T12:30:37.664Z,2.80
2023-06-18T12:33:08.664Z,3.60
2023-06-18T12:35:39.045Z,3.30
2023-06-18T12:38:10.216Z,3.50
2023-06-18T12:41:00.728Z,3.20
2023-06-18T12:43:31.297Z,3.60
2023-06-18T12:46:01.091Z,2.70
2023-06-18T12:48:31.275Z,3.40
2023-06-18T12:51:01.180Z,2.70
2023-06-18T12:53:30.684Z,3.00
2023-06-18T12:56:23.671Z,3.30
2023-06-18T12:58:53.543Z,4.20
2023-06-18T13:01:22.677Z,3.60
2023-06-18T13:03:52.179Z,3.70
2023-06-18T13:06:22.395Z,3.50
2023-06-18T13:08:52.087Z,3.40
2023-06-18T13:11:21.571Z,3.70
2023-06-18T13:13:51.212Z,2.90
2023-06-18T13:16:21.233Z,2.70
2023-06-18T13:18:50.204Z,2.40
2023-06-18T13:21:19.633Z,2.50
2023-06-18T13:23:49.010Z,3.00
2023-06-18T13:26:20.162Z,2.50
2023-06-18T13:28:49.176Z,2.60
2023-06-18T13:31:18.658Z,3.40
2023-06-18T13:33:48.370Z,3.30
2023-06-18T13:36:17.774Z,3.70
2023-06-18T13:38:47.086Z,3.50
2023-06-18T13:41:16.355Z,3.20
2023-06-18T13:43:46.289Z,3.20
2023-06-18T13:46:15.398Z,3.20
2023-06-18T13:48:44.683Z,3.70
2023-06-18T13:51:16.440Z,3.60
2023-06-18T13:53:45.417Z,3.80
2023-06-18T13:56:14.119Z,3.00
2023-06-18T13:58:44.138Z,3.00
2023-06-18T14:01:13.853Z,4.00
2023-06-18T14:03:42.991Z,3.50
2023-06-18T14:06:15.203Z,3.20
2023-06-18T14:08:44.413Z,3.20
2023-06-18T14:11:13.819Z,3.40
2023-06-18T14:13:42.822Z,3.70
2023-06-18T14:16:13.241Z,4.00
2023-06-18T14:18:42.638Z,3.30
2023-06-18T14:21:11.642Z,3.40
2023-06-18T14:23:41.835Z,3.60
2023-06-18T14:26:11.140Z,3.60
2023-06-18T14:28:40.763Z,3.80
2023-06-18T14:31:09.952Z,3.30
2023-06-18T14:33:39.435Z,3.70
2023-06-18T14:36:08.370Z,3.40
2023-06-18T14:38:37.219Z,3.70
2023-06-18T14:41:06.563Z,4.00
2023-06-18T14:43:35.448Z,3.40
2023-06-18T14:46:04.342Z,3.50
2023-06-18T14:48:35.777Z,3.90
2023-06-18T14:51:05.077Z,3.60
2023-06-18T14:53:34.193Z,3.50
2023-06-18T14:56:03.681Z,3.30
2023-06-18T14:58:32.556Z,4.00
2023-06-18T15:01:01.891Z,3.80
2023-06-18T15:03:30.952Z,4.20
2023-06-18T15:05:59.737Z,3.90
2023-06-18T15:08:30.688Z,3.60
2023-06-18T15:11:05.417Z,3.60
2023-06-18T15:13:43.292Z,4.00
2023-06-18T15:16:15.606Z,4.20
2023-06-18T15:18:51.004Z,4.30
2023-06-18T15:21:23.618Z,3.90
2023-06-18T15:23:55.900Z,4.00
2023-06-18T15:26:29.469Z,4.10
2023-06-18T15:29:02.754Z,4.30
2023-06-18T15:31:36.271Z,3.80
2023-06-18T15:34:09.000Z,3.60
2023-06-18T15:36:44.176Z,4.20
2023-06-18T15:39:18.150Z,4.20
2023-06-18T15:41:49.791Z,5.10
2023-06-18T15:44:27.019Z,4.10
2023-06-18T15:47:05.018Z,4.10
2023-06-18T15:49:41.750Z,4.10
2023-06-18T15:52:15.013Z,4.00
2023-06-18T15:54:50.218Z,4.50
2023-06-18T15:57:24.170Z,4.40
2023-06-18T15:59:57.808Z,4.30
2023-06-18T16:02:30.629Z,4.10
2023-06-18T16:05:08.798Z,3.80
2023-06-18T16:07:44.206Z,4.30
2023-06-18T16:10:19.279Z,4.10
2023-06-18T16:12:51.599Z,3.90
2023-06-18T16:15:26.026Z,4.10
2023-06-18T16:18:05.208Z,4.20
2023-06-18T16:20:40.587Z,4.10
2023-06-18T16:23:14.227Z,4.50
2023-06-18T16:25:55.091Z,4.40
2023-06-18T16:28:30.821Z,3.80
2023-06-18T16:31:12.040Z,4.50
2023-06-18T16:33:48.198Z,4.50
2023-06-18T16:36:20.753Z,3.80
2023-06-18T16:38:53.745Z,4.00
2023-06-18T16:41:24.278Z,4.50
2023-06-18T16:43:59.108Z,4.20
2023-06-18T16:46:34.483Z,3.90
2023-06-18T16:49:08.166Z,3.90
2023-06-18T16:51:40.750Z,3.80
2023-06-18T16:54:14.296Z,3.80
2023-06-18T16:56:50.026Z,4.00
2023-06-18T16:59:22.571Z,4.40
2023-06-18T17:01:55.955Z,3.40
2023-06-18T17:04:29.041Z,4.10
2023-06-18T17:07:01.859Z,3.90
2023-06-18T17:09:39.028Z,4.20
2023-06-18T17:12:13.598Z,4.20
2023-06-18T17:14:46.616Z,4.10
2023-06-18T17:17:16.118Z,3.90
2023-06-18T17:19:45.300Z,4.20
2023-06-18T17:22:14.926Z,4.50
2023-06-18T17:24:45.782Z,4.50
2023-06-18T17:27:15.044Z,4.30
2023-06-18T17:29:45.056Z,4.00
2023-06-18T17:32:14.554Z,4.20
2023-06-18T17:34:44.170Z,3.80
2023-06-18T17:37:13.672Z,4.60
2023-06-18T17:39:47.208Z,4.00
2023-06-18T17:42:26.887Z,4.30
2023-06-18T17:45:24.571Z,3.90
2023-06-18T17:47:54.059Z,3.80
2023-06-18T17:50:23.487Z,4.00
2023-06-18T17:52:53.093Z,4.00
2023-06-18T17:55:25.348Z,3.90
2023-06-18T17:57:58.510Z,4.00
2023-06-18T18:00:31.018Z,3.70
2023-06-18T18:03:02.792Z,4.00
2023-06-18T18:05:36.810Z,4.20
2023-06-18T18:08:07.431Z,3.80
2023-06-18T18:10:38.563Z,4.00
2023-06-18T18:13:09.932Z,3.70
2023-06-18T18:15:39.532Z,4.00
2023-06-18T18:18:09.684Z,4.10
2023-06-18T18:20:39.471Z,4.10
2023-06-18T18:23:08.756Z,4.00
2023-06-18T18:25:37.767Z,4.00
2023-06-18T18:28:07.157Z,4.20
2023-06-18T18:30:37.652Z,3.80
2023-06-18T18:33:11.996Z,3.80
2023-06-18T18:35:42.129Z,3.70
2023-06-18T18:38:12.040Z,4.10
2023-06-18T18:40:42.868Z,3.80
2023-06-18T18:43:17.177Z,4.20
2023-06-18T18:45:55.813Z,4.00
2023-06-18T18:48:26.507Z,4.50
2023-06-18T18:50:59.528Z,4.60
2023-06-18T18:53:30.617Z,4.70
2023-06-18T18:56:00.352Z,5.40
2023-06-18T18:58:31.145Z,6.40
2023-06-18T19:01:01.381Z,6.30
2023-06-18T19:03:31.052Z,5.80
2023-06-18T19:06:00.780Z,5.80
2023-06-18T19:08:30.886Z,5.60
2023-06-18T19:11:00.600Z,5.10
2023-06-18T19:13:30.198Z,4.70
2023-06-18T19:16:00.404Z,4.60
2023-06-18T19:18:33.445Z,4.90
2023-06-18T19:21:04.739Z,5.00
2023-06-18T19:23:37.627Z,4.80
2023-06-18T19:26:11.196Z,5.30
2023-06-18T19:28:42.518Z,6.30
2023-06-18T19:31:22.083Z,5.40
2023-06-18T19:33:56.591Z,4.40
2023-06-18T19:36:32.292Z,4.90
2023-06-18T19:39:10.550Z,4.80
2023-06-18T19:41:47.118Z,4.60
2023-06-18T19:44:21.503Z,4.70
2023-06-18T19:46:55.084Z,5.10
2023-06-18T19:49:26.434Z,4.30
2023-06-18T19:52:04.408Z,5.00
2023-06-18T19:54:41.511Z,4.90
2023-06-18T19:57:10.837Z,4.90
2023-06-18T19:59:41.262Z,5.40
2023-06-18T20:02:10.371Z,5.40
2023-06-18T20:04:40.481Z,5.60
2023-06-18T20:07:11.924Z,5.70
2023-06-18T20:09:41.655Z,5.50
2023-06-18T20:12:11.234Z,5.20
2023-06-18T20:14:40.439Z,5.40
2023-06-18T20:17:12.089Z,4.60
2023-06-18T20:19:41.299Z,5.70
2023-06-18T20:22:10.612Z,5.20
2023-06-18T20:24:39.911Z,4.90
2023-06-18T20:27:09.090Z,5.20
2023-06-18T20:29:39.019Z,5.30
2023-06-18T20:32:09.014Z,6.10
2023-06-18T20:34:40.266Z,6.30
2023-06-18T20:37:12.011Z,6.80
2023-06-18T20:39:41.863Z,5.80
2023-06-18T20:42:12.377Z,5.90
2023-06-18T20:44:41.567Z,6.30
2023-06-18T20:47:11.181Z,6.30
2023-06-18T20:49:40.120Z,6.00
2023-06-18T20:52:09.541Z,4.90
2023-06-18T20:54:38.711Z,5.00
2023-06-18T20:57:09.197Z,4.70
2023-06-18T20:59:38.394Z,5.20
2023-06-18T21:02:07.966Z,5.00
2023-06-18T21:04:37.497Z,5.70
2023-06-18T21:07:07.635Z,4.80
2023-06-18T21:09:37.134Z,5.00
2023-06-18T21:12:06.628Z,5.50
2023-06-18T21:14:35.945Z,5.30
2023-06-18T21:17:05.581Z,5.20
2023-06-18T21:19:34.739Z,5.50
2023-06-18T21:22:04.653Z,5.20
2023-06-18T21:24:34.092Z,5.50
2023-06-18T21:27:03.367Z,11.50
2023-06-18T21:29:33.377Z,5.80
2023-06-18T21:32:17.650Z,5.40
2023-06-18T21:34:52.236Z,5.20
2023-06-18T21:37:29.357Z,5.00
2023-06-18T21:40:06.983Z,5.40
2023-06-18T21:42:37.843Z,5.40
2023-06-18T21:45:11.433Z,5.30
2023-06-18T21:47:44.218Z,5.30
2023-06-18T21:50:13.878Z,5.90
2023-06-18T21:52:43.046Z,5.70
2023-06-18T21:55:12.530Z,5.80
2023-06-18T21:57:41.759Z,5.40
2023-06-18T22:00:15.232Z,5.30
2023-06-18T22:02:44.439Z,6.30
2023-06-18T22:05:13.859Z,6.10
2023-06-18T22:07:43.807Z,6.50
2023-06-18T22:10:13.278Z,6.60
2023-06-18T22:12:42.187Z,5.90
2023-06-18T22:15:15.489Z,6.40
2023-06-18T22:17:46.803Z,7.10
2023-06-18T22:20:21.938Z,6.20
2023-06-18T22:22:55.771Z,6.50
2023-06-18T22:25:31.001Z,6.90
2023-06-18T22:28:06.644Z,6.30
2023-06-18T22:30:37.058Z,6.70
2023-06-18T22:33:13.662Z,6.30
2023-06-18T22:35:46.837Z,7.10
2023-06-18T22:38:20.930Z,6.70
2023-06-18T22:40:52.698Z,6.60
2023-06-18T22:43:25.348Z,5.90
2023-06-18T22:45:54.183Z,7.00
2023-06-18T22:48:23.675Z,6.40
2023-06-18T22:50:52.582Z,6.40
2023-06-18T22:53:21.768Z,7.30
2023-06-18T22:55:50.660Z,6.80
2023-06-18T22:58:19.668Z,7.30
2023-06-18T23:00:51.873Z,6.90
2023-06-18T23:03:20.937Z,6.60
2023-06-18T23:05:51.549Z,6.90
2023-06-18T23:08:26.608Z,6.90
2023-06-18T23:11:01.978Z,7.00
2023-06-18T23:13:32.454Z,7.60
2023-06-18T23:16:02.466Z,6.70
2023-06-18T23:18:31.468Z,6.80
2023-06-18T23:21:01.397Z,6.50
2023-06-18T23:23:31.263Z,6.80
2023-06-18T23:26:00.485Z,7.00
2023-06-18T23:28:29.362Z,6.90
2023-06-18T23:30:58.109Z,7.50
2023-06-18T23:33:26.944Z,7.60
2023-06-18T23:35:55.947Z,7.70
2023-06-18T23:38:25.858Z,6.90
2023-06-18T23:40:54.626Z,7.10
2023-06-18T23:43:24.757Z,7.50
2023-06-18T23:45:58.906Z,7.00
2023-06-18T23:48:36.038Z,6.70
2023-06-18T23:51:14.444Z,7.00
2023-06-18T23:53:50.154Z,7.40
2023-06-18T23:56:25.352Z,7.40
2023-06-18T23:58:56.496Z,7.80
